Terminal Aerodrome Forecast
Issued by NWS

Home | Current Version | Previous Version | Text Only | Print | Product List | Glossary On
Versions: 1 2 3 4 5 6 7 8 9 10 11 12 13 14 15 16 17 18 19 20
000
FTPA31 PHFO 111139
TAFHOG
TAF
PHOG 111139Z 1112/1212 19007KT 6SM -RA FEW015 SCT040 BKN080
     FM112000 18005KT P6SM VCSH FEW015 SCT045 BKN080
     FM112200 02008KT P6SM VCSH FEW030 SCT060
      AMD LTD TO VIS AND WIND TIL 111600=

USA.gov is the U.S. government's official web portal to all federal, state and local government web resources and services.